createdAt,value
2022-09-25T00:00:44.585Z,8.18
2022-09-25T00:05:47.119Z,8.38
2022-09-25T00:10:50.683Z,7.72
2022-09-25T00:15:56.175Z,8.18
2022-09-25T00:21:01.569Z,8.20
2022-09-25T00:26:05.951Z,8.23
2022-09-25T00:31:08.289Z,7.85
2022-09-25T00:36:10.522Z,7.60
2022-09-25T00:41:12.268Z,7.35
2022-09-25T00:46:20.078Z,8.10
2022-09-25T00:51:28.146Z,8.45
2022-09-25T00:56:34.838Z,8.18
2022-09-25T01:01:36.441Z,8.38
2022-09-25T01:06:38.119Z,8.85
2022-09-25T01:11:39.639Z,7.25
2022-09-25T01:16:56.268Z,7.60
2022-09-25T01:22:06.861Z,7.82
2022-09-25T01:27:30.787Z,7.82
2022-09-25T01:33:03.405Z,7.40
2022-09-25T01:38:39.626Z,7.53
2022-09-25T01:44:33.764Z,7.47
2022-09-25T01:49:45.778Z,7.97
2022-09-25T01:54:54.315Z,7.00
2022-09-25T01:59:59.872Z,7.78
2022-09-25T02:05:05.726Z,7.60
2022-09-25T02:10:46.754Z,7.55
2022-09-25T02:15:55.586Z,7.45
2022-09-25T02:21:16.601Z,7.13
2022-09-25T02:26:25.027Z,7.03
2022-09-25T02:31:35.663Z,7.00
2022-09-25T02:36:37.310Z,7.45
2022-09-25T02:42:04.564Z,7.07
2022-09-25T02:47:08.766Z,7.07
2022-09-25T02:52:26.704Z,6.97
2022-09-25T02:58:02.655Z,6.55
2022-09-25T03:03:06.180Z,6.88
2022-09-25T03:08:26.492Z,6.53
2022-09-25T03:13:33.154Z,6.63
2022-09-25T03:18:34.731Z,7.00
2022-09-25T03:23:36.293Z,6.43
2022-09-25T03:28:37.812Z,6.88
2022-09-25T03:33:42.544Z,6.88
2022-09-25T03:38:45.864Z,7.07
2022-09-25T03:43:51.211Z,6.40
2022-09-25T03:48:53.526Z,6.65
2022-09-25T03:53:55.391Z,6.75
2022-09-25T03:58:57.471Z,6.50
2022-09-25T04:04:01.092Z,6.50
2022-09-25T04:09:02.594Z,6.55
2022-09-25T04:14:04.878Z,6.30
2022-09-25T04:19:06.935Z,6.68
2022-09-25T04:24:27.004Z,6.82
2022-09-25T04:29:29.062Z,6.88
2022-09-25T04:34:30.914Z,6.30
2022-09-25T04:39:32.420Z,6.72
2022-09-25T04:44:33.944Z,6.35
2022-09-25T04:49:36.335Z,6.80
2022-09-25T04:54:37.850Z,6.32
2022-09-25T04:59:39.434Z,6.03
2022-09-25T05:04:41.167Z,6.72
2022-09-25T05:09:42.672Z,6.88
2022-09-25T05:14:44.217Z,7.40
2022-09-25T05:19:45.719Z,6.63
2022-09-25T05:24:47.242Z,7.13
2022-09-25T05:29:49.562Z,7.20
2022-09-25T05:34:51.078Z,6.93
2022-09-25T05:39:52.682Z,6.60
2022-09-25T05:44:54.175Z,6.50
2022-09-25T05:49:55.725Z,7.00
2022-09-25T05:54:57.357Z,6.57
2022-09-25T05:59:59.230Z,6.28
2022-09-25T06:05:00.753Z,6.45
2022-09-25T06:10:02.409Z,6.25
2022-09-25T06:15:04.275Z,6.63
2022-09-25T06:20:06.188Z,6.25
2022-09-25T06:25:08.224Z,6.70
2022-09-25T06:30:10.078Z,6.80
2022-09-25T06:35:11.596Z,7.10
2022-09-25T06:40:13.210Z,6.75
2022-09-25T06:45:14.838Z,6.63
2022-09-25T06:50:16.460Z,7.00
2022-09-25T06:55:17.982Z,7.10
2022-09-25T07:00:19.609Z,6.63
2022-09-25T07:05:21.124Z,6.57
2022-09-25T07:10:22.673Z,7.03
2022-09-25T07:15:24.209Z,7.32
2022-09-25T07:20:25.776Z,6.75
2022-09-25T07:25:27.387Z,7.07
2022-09-25T07:30:29.592Z,6.68
2022-09-25T07:35:31.129Z,7.13
2022-09-25T07:40:35.430Z,7.13
2022-09-25T07:45:37.202Z,7.05
2022-09-25T07:50:38.785Z,7.30
2022-09-25T07:55:41.173Z,6.85
2022-09-25T08:00:43.492Z,6.95
2022-09-25T08:05:45.070Z,6.85
2022-09-25T08:10:46.612Z,6.47
2022-09-25T08:15:48.824Z,6.93
2022-09-25T08:20:50.478Z,6.10
2022-09-25T08:25:52.028Z,6.95
2022-09-25T08:30:54.214Z,6.22
2022-09-25T08:36:01.161Z,6.55
2022-09-25T08:41:09.465Z,6.35
2022-09-25T08:46:59.891Z,7.15
2022-09-25T08:52:05.115Z,6.20
2022-09-25T08:57:25.027Z,6.70
2022-09-25T09:02:35.772Z,6.65
2022-09-25T09:07:43.696Z,6.82
2022-09-25T09:12:48.040Z,7.40
2022-09-25T09:17:49.567Z,6.60
2022-09-25T09:22:52.814Z,6.93
2022-09-25T09:28:07.044Z,7.60
2022-09-25T09:33:20.746Z,8.50
2022-09-25T09:38:32.587Z,8.57
2022-09-25T09:43:58.719Z,8.02
2022-09-25T09:49:24.504Z,8.50
2022-09-25T09:54:35.729Z,8.93
2022-09-25T09:59:44.965Z,8.23
2022-09-25T10:04:47.063Z,8.02
2022-09-25T10:09:53.325Z,7.53
2022-09-25T10:14:55.489Z,8.13
2022-09-25T10:20:03.870Z,12.82
2022-09-25T10:25:06.569Z,9.13
2022-09-25T10:30:11.019Z,8.35
2022-09-25T10:35:21.405Z,7.80
2022-09-25T10:40:30.941Z,7.22
2022-09-25T10:45:33.774Z,6.30
2022-09-25T10:50:36.980Z,5.97
2022-09-25T10:55:43.895Z,5.30
2022-09-25T11:00:54.549Z,3.90
2022-09-25T11:06:21.039Z,3.85
2022-09-25T11:11:26.842Z,3.92
2022-09-25T11:16:48.705Z,4.10
2022-09-25T11:22:14.406Z,3.50
2022-09-25T11:27:21.678Z,3.95
2022-09-25T11:32:42.732Z,3.42
2022-09-25T11:38:41.822Z,3.55
2022-09-25T11:44:05.283Z,3.05
2022-09-25T11:49:19.366Z,3.38
2022-09-25T11:54:39.346Z,3.00
2022-09-25T11:59:47.036Z,2.95
2022-09-25T12:05:04.063Z,3.30
2022-09-25T12:10:24.677Z,3.00
2022-09-25T12:15:46.579Z,3.60
2022-09-25T12:21:05.952Z,3.95
2022-09-25T12:26:30.868Z,4.07
2022-09-25T12:32:00.580Z,4.65
2022-09-25T12:37:43.424Z,4.75
2022-09-25T12:42:52.560Z,4.63
2022-09-25T12:48:05.155Z,5.30
2022-09-25T12:53:30.624Z,5.45
2022-09-25T12:58:44.339Z,4.95
2022-09-25T13:04:10.925Z,5.25
2022-09-25T13:09:18.362Z,4.82
2022-09-25T13:14:28.339Z,4.78
2022-09-25T13:19:34.252Z,4.43
2022-09-25T13:24:44.504Z,4.90
2022-09-25T13:29:54.152Z,5.05
2022-09-25T13:34:58.547Z,4.60
2022-09-25T13:40:19.342Z,4.60
2022-09-25T13:45:32.402Z,5.13
2022-09-25T13:50:36.251Z,4.45
2022-09-25T13:55:42.238Z,4.55
2022-09-25T14:01:02.882Z,4.43
2022-09-25T14:06:07.565Z,5.90
2022-09-25T14:11:12.633Z,5.10
2022-09-25T14:16:25.930Z,9.75
2022-09-25T14:21:28.551Z,4.68
2022-09-25T14:26:30.125Z,5.63
2022-09-25T14:31:50.213Z,4.20
2022-09-25T14:37:05.115Z,4.30
2022-09-25T14:42:53.157Z,4.15
2022-09-25T14:47:57.570Z,4.00
2022-09-25T14:53:01.250Z,4.75
2022-09-25T14:58:03.222Z,4.28
2022-09-25T15:03:04.839Z,4.20
2022-09-25T15:08:30.942Z,3.80
2022-09-25T15:13:33.666Z,3.92
2022-09-25T15:18:39.860Z,4.75
2022-09-25T15:23:44.000Z,4.20
2022-09-25T15:28:45.855Z,3.80
2022-09-25T15:34:02.655Z,3.30
2022-09-25T15:39:13.775Z,3.75
2022-09-25T15:44:22.654Z,3.58
2022-09-25T15:49:28.080Z,3.85
2022-09-25T15:54:44.218Z,5.22
2022-09-25T16:00:07.667Z,6.70
2022-09-25T16:05:10.492Z,15.82
2022-09-25T16:10:17.962Z,5.10
2022-09-25T16:15:36.308Z,4.53
2022-09-25T16:20:39.613Z,4.20
2022-09-25T16:25:44.684Z,4.53
2022-09-25T16:31:07.881Z,4.07
2022-09-25T16:36:17.760Z,4.10
2022-09-25T16:41:22.100Z,4.10
2022-09-25T16:46:24.014Z,4.20
2022-09-25T16:51:30.025Z,4.50
2022-09-25T16:56:32.521Z,5.20
2022-09-25T17:01:34.282Z,6.00
2022-09-25T17:06:40.751Z,5.97
2022-09-25T17:11:44.976Z,5.47
2022-09-25T17:16:46.502Z,5.22
2022-09-25T17:21:53.060Z,5.40
2022-09-25T17:26:54.744Z,6.97
2022-09-25T17:31:56.267Z,6.53
2022-09-25T17:36:57.986Z,6.70
2022-09-25T17:42:02.935Z,6.68
2022-09-25T17:47:06.052Z,7.68
2022-09-25T17:52:09.494Z,6.95
2022-09-25T17:57:11.005Z,7.05
2022-09-25T18:02:15.252Z,6.47
2022-09-25T18:07:16.930Z,6.38
2022-09-25T18:12:18.469Z,9.35
2022-09-25T18:17:19.993Z,10.13
2022-09-25T18:22:25.242Z,7.78
2022-09-25T18:27:29.807Z,6.93
2022-09-25T18:32:31.666Z,7.97
2022-09-25T18:37:33.266Z,6.88
2022-09-25T18:42:34.801Z,6.97
2022-09-25T18:47:36.388Z,6.57
2022-09-25T18:52:38.180Z,6.80
2022-09-25T18:57:40.722Z,6.82
2022-09-25T19:02:43.287Z,6.35
2022-09-25T19:07:45.062Z,7.38
2022-09-25T19:12:47.010Z,8.45
2022-09-25T19:17:48.599Z,7.82
2022-09-25T19:22:50.761Z,8.48
2022-09-25T19:27:52.345Z,7.90
2022-09-25T19:32:53.863Z,8.10
2022-09-25T19:37:55.402Z,8.70
2022-09-25T19:42:57.953Z,8.15
2022-09-25T19:48:00.169Z,9.00
2022-09-25T19:53:01.974Z,8.25
2022-09-25T19:58:04.465Z,8.27
2022-09-25T20:03:06.085Z,8.85
2022-09-25T20:08:08.164Z,8.73
2022-09-25T20:13:10.246Z,8.57
2022-09-25T20:18:11.768Z,9.20
2022-09-25T20:23:13.344Z,7.90
2022-09-25T20:28:14.926Z,8.77
2022-09-25T20:33:17.261Z,8.55
2022-09-25T20:38:18.794Z,8.43
2022-09-25T20:43:21.588Z,8.05
2022-09-25T20:48:24.400Z,7.97
2022-09-25T20:53:27.792Z,8.43
2022-09-25T20:58:29.507Z,8.10
2022-09-25T21:03:35.878Z,8.40
2022-09-25T21:08:37.599Z,8.60
2022-09-25T21:13:40.360Z,9.23
2022-09-25T21:18:42.256Z,7.90
2022-09-25T21:23:48.263Z,7.93
2022-09-25T21:28:51.621Z,8.45
2022-09-25T21:33:54.395Z,8.95
2022-09-25T21:38:56.371Z,9.27
2022-09-25T21:44:04.154Z,9.23
2022-09-25T21:49:06.655Z,8.80
2022-09-25T21:54:10.139Z,9.00
2022-09-25T21:59:12.200Z,9.43
2022-09-25T22:04:15.282Z,9.43
2022-09-25T22:09:23.202Z,9.85
2022-09-25T22:14:24.769Z,10.18
2022-09-25T22:19:28.367Z,9.68
2022-09-25T22:24:29.964Z,10.20
2022-09-25T22:29:31.832Z,9.80
2022-09-25T22:34:33.373Z,9.27
2022-09-25T22:39:34.928Z,9.48
2022-09-25T22:44:36.451Z,9.90
2022-09-25T22:49:38.001Z,10.30
2022-09-25T22:54:39.619Z,10.00
2022-09-25T22:59:41.168Z,10.25
2022-09-25T23:04:44.814Z,10.63
2022-09-25T23:09:46.405Z,10.93
2022-09-25T23:14:47.925Z,10.25
2022-09-25T23:19:49.459Z,10.00
2022-09-25T23:24:50.981Z,10.52
2022-09-25T23:29:52.555Z,10.20
2022-09-25T23:34:54.107Z,9.27
2022-09-25T23:39:55.904Z,9.35
2022-09-25T23:44:57.889Z,9.40
2022-09-25T23:50:04.177Z,9.07
2022-09-25T23:55:06.622Z,8.75
